createdAt,value
2022-08-20T00:00:14.772Z,99613.53
2022-08-20T00:02:43.841Z,99617.03
2022-08-20T00:05:11.515Z,99626.03
2022-08-20T00:07:38.840Z,99623.47
2022-08-20T00:10:07.080Z,99628.00
2022-08-20T00:12:34.657Z,99634.81
2022-08-20T00:15:02.362Z,99646.72
2022-08-20T00:17:39.846Z,99643.47
2022-08-20T00:20:09.585Z,99667.16
2022-08-20T00:22:36.733Z,99668.75
2022-08-20T00:25:07.255Z,99652.91
2022-08-20T00:27:34.430Z,99648.41
2022-08-20T00:30:01.265Z,99646.53
2022-08-20T00:32:30.062Z,99640.19
2022-08-20T00:34:57.226Z,99642.31
2022-08-20T00:37:24.099Z,99637.59
2022-08-20T00:39:50.931Z,99644.91
2022-08-20T00:42:18.175Z,99641.94
2022-08-20T00:44:46.152Z,99632.81
2022-08-20T00:47:12.994Z,99630.06
2022-08-20T00:49:40.111Z,99624.16
2022-08-20T00:52:09.317Z,99625.50
2022-08-20T00:54:41.840Z,99615.19
2022-08-20T00:57:11.765Z,99605.88
2022-08-20T00:59:40.218Z,99593.25
2022-08-20T01:02:09.496Z,99595.88
2022-08-20T01:04:37.203Z,99610.47
2022-08-20T01:07:05.449Z,99611.31
2022-08-20T01:09:49.552Z,99624.31
2022-08-20T01:12:20.323Z,99614.56
2022-08-20T01:14:47.584Z,99613.78
2022-08-20T01:17:17.752Z,99610.91
2022-08-20T01:19:48.176Z,99596.66
2022-08-20T01:22:37.491Z,99581.91
2022-08-20T01:25:07.914Z,99550.22
2022-08-20T01:27:35.154Z,99510.69
2022-08-20T01:30:10.257Z,99473.75
2022-08-20T01:32:37.171Z,99476.38
2022-08-20T01:35:04.560Z,99485.56
2022-08-20T01:37:31.867Z,99486.50
2022-08-20T01:39:58.866Z,99484.84
2022-08-20T01:42:50.368Z,99480.50
2022-08-20T01:45:29.259Z,99471.25
2022-08-20T01:47:58.310Z,99471.81
2022-08-20T01:50:27.742Z,99466.53
2022-08-20T01:53:12.809Z,99466.53
2022-08-20T01:55:39.905Z,99463.66
2022-08-20T01:58:07.054Z,99466.84
2022-08-20T02:00:35.680Z,99474.66
2022-08-20T02:03:05.527Z,99472.91
2022-08-20T02:05:36.010Z,99483.06
2022-08-20T02:08:03.031Z,99476.59
2022-08-20T02:10:31.742Z,99480.56
2022-08-20T02:13:00.754Z,99481.44
2022-08-20T02:15:47.463Z,99479.13
2022-08-20T02:18:15.737Z,99476.84
2022-08-20T02:20:43.692Z,99476.84
2022-08-20T02:23:12.248Z,99479.97
2022-08-20T02:25:40.424Z,99497.38
2022-08-20T02:28:09.259Z,99502.38
2022-08-20T02:30:39.253Z,99503.72
2022-08-20T02:33:08.114Z,99506.97
2022-08-20T02:35:35.404Z,99512.53
2022-08-20T02:38:02.815Z,99531.78
2022-08-20T02:40:31.511Z,99523.88
2022-08-20T02:42:59.550Z,99533.34
2022-08-20T02:45:26.967Z,99545.75
2022-08-20T02:47:54.436Z,99538.69
2022-08-20T02:50:21.916Z,99550.25
2022-08-20T02:52:51.822Z,99558.63
2022-08-20T02:55:27.497Z,99557.28
2022-08-20T02:57:58.599Z,99569.16
2022-08-20T03:00:27.322Z,99573.88
2022-08-20T03:02:54.128Z,99574.97
2022-08-20T03:05:21.095Z,99582.69
2022-08-20T03:07:49.873Z,99592.13
2022-08-20T03:10:17.292Z,99588.72
2022-08-20T03:12:44.142Z,99587.66
2022-08-20T03:15:17.648Z,99593.72
2022-08-20T03:17:45.524Z,99585.59
2022-08-20T03:20:13.367Z,99584.53
2022-08-20T03:22:40.641Z,99591.66
2022-08-20T03:25:07.695Z,99584.00
2022-08-20T03:27:36.383Z,99580.91
2022-08-20T03:30:08.691Z,99578.84
2022-08-20T03:32:36.358Z,99574.38
2022-08-20T03:35:04.967Z,99573.28
2022-08-20T03:37:32.832Z,99566.72
2022-08-20T03:40:00.416Z,99573.88
2022-08-20T03:42:27.463Z,99582.63
2022-08-20T03:44:58.997Z,99568.97
2022-08-20T03:47:27.031Z,99576.31
2022-08-20T03:49:58.244Z,99571.63
2022-08-20T03:52:25.265Z,99563.94
2022-08-20T03:54:52.393Z,99566.31
2022-08-20T03:57:19.215Z,99558.34
2022-08-20T03:59:46.020Z,99559.88
2022-08-20T04:02:17.156Z,99558.25
2022-08-20T04:04:43.964Z,99561.63
2022-08-20T04:07:12.088Z,99560.78
2022-08-20T04:09:40.044Z,99569.25
2022-08-20T04:12:09.778Z,99569.69
2022-08-20T04:14:36.663Z,99572.78
2022-08-20T04:17:04.834Z,99577.22
2022-08-20T04:19:34.413Z,99571.13
2022-08-20T04:22:01.981Z,99574.53
2022-08-20T04:24:32.635Z,99571.13
2022-08-20T04:27:00.847Z,99557.84
2022-08-20T04:29:31.970Z,99554.59
2022-08-20T04:32:00.727Z,99542.81
2022-08-20T04:34:30.577Z,99556.16
2022-08-20T04:36:57.433Z,99575.13
2022-08-20T04:39:24.324Z,99568.16
2022-08-20T04:41:51.431Z,99576.63
2022-08-20T04:44:18.363Z,99582.09
2022-08-20T04:46:45.243Z,99584.44
2022-08-20T04:52:03.354Z,99583.38
2022-08-20T04:54:31.472Z,99578.06
2022-08-20T04:57:01.076Z,99573.44
2022-08-20T04:59:27.917Z,99561.66
2022-08-20T05:01:55.059Z,99553.34
2022-08-20T05:04:21.891Z,99563.25
2022-08-20T05:06:49.654Z,99563.72
2022-08-20T05:09:16.995Z,99587.16
2022-08-20T05:11:45.987Z,99592.84
2022-08-20T05:14:14.020Z,99596.22
2022-08-20T05:16:41.291Z,99603.25
2022-08-20T05:19:09.661Z,99600.00
2022-08-20T05:21:37.236Z,99578.09
2022-08-20T05:24:05.269Z,99573.03
2022-08-20T05:27:35.700Z,99564.69
2022-08-20T05:30:07.268Z,99570.19
2022-08-20T05:32:44.714Z,99573.38
2022-08-20T05:35:12.048Z,99576.59
2022-08-20T05:37:41.262Z,99580.03
2022-08-20T05:40:10.545Z,99571.59
2022-08-20T05:42:38.125Z,99580.72
2022-08-20T05:45:11.042Z,99582.38
2022-08-20T05:47:42.727Z,99602.28
2022-08-20T05:50:11.066Z,99611.56
2022-08-20T05:52:47.909Z,99614.03
2022-08-20T05:55:14.902Z,99620.06
2022-08-20T05:57:42.141Z,99623.53
2022-08-20T06:00:10.851Z,99642.78
2022-08-20T06:03:00.717Z,99632.59
2022-08-20T06:05:27.953Z,99649.22
2022-08-20T06:07:59.446Z,99655.00
2022-08-20T06:10:35.903Z,99663.88
2022-08-20T06:13:03.175Z,99659.28
2022-08-20T06:15:30.873Z,99659.47
2022-08-20T06:17:58.416Z,99657.94
2022-08-20T06:20:26.134Z,99656.53
2022-08-20T06:22:53.120Z,99640.16
2022-08-20T06:25:20.376Z,99640.59
2022-08-20T06:27:47.267Z,99648.34
2022-08-20T06:30:16.097Z,99641.00
2022-08-20T06:32:43.292Z,99649.66
2022-08-20T06:35:10.641Z,99650.88
2022-08-20T06:37:38.535Z,99649.91
2022-08-20T06:40:09.065Z,99656.75
2022-08-20T06:42:37.472Z,99654.00
2022-08-20T06:45:07.400Z,99656.63
2022-08-20T06:47:38.930Z,99662.06
2022-08-20T06:50:07.860Z,99657.94
2022-08-20T06:53:03.134Z,99661.34
2022-08-20T06:55:26.148Z,99669.19
2022-08-20T06:57:58.340Z,99665.94
2022-08-20T07:00:25.443Z,99660.16
2022-08-20T07:02:52.393Z,99666.47
2022-08-20T07:05:19.641Z,99673.38
2022-08-20T07:07:47.369Z,99665.41
2022-08-20T07:10:15.366Z,99665.22
2022-08-20T07:12:44.974Z,99666.22
2022-08-20T07:15:15.213Z,99663.00
2022-08-20T07:17:42.447Z,99663.28
2022-08-20T07:20:11.021Z,99664.44
2022-08-20T07:22:37.877Z,99657.75
2022-08-20T07:25:06.414Z,99676.19
2022-08-20T07:27:33.540Z,99684.72
2022-08-20T07:30:18.946Z,99690.31
2022-08-20T07:32:47.676Z,99691.66
2022-08-20T07:35:16.249Z,99698.88
2022-08-20T07:37:44.614Z,99695.81
2022-08-20T07:40:14.651Z,99688.75
2022-08-20T07:42:41.703Z,99699.50
2022-08-20T07:45:10.918Z,99702.06
2022-08-20T07:47:39.376Z,99699.91
2022-08-20T07:50:06.959Z,99702.75
2022-08-20T07:52:36.894Z,99702.81
2022-08-20T07:55:08.617Z,99703.78
2022-08-20T07:57:35.678Z,99698.78
2022-08-20T08:00:03.324Z,99708.03
2022-08-20T08:02:36.784Z,99698.69
2022-08-20T08:05:04.876Z,99690.97
2022-08-20T08:07:32.682Z,99691.50
2022-08-20T08:10:01.741Z,99692.69
2022-08-20T08:12:35.084Z,99684.91
2022-08-20T08:15:04.482Z,99694.72
2022-08-20T08:17:31.714Z,99680.41
2022-08-20T08:19:59.387Z,99676.84
2022-08-20T08:22:26.553Z,99677.19
2022-08-20T08:24:57.357Z,99667.25
2022-08-20T08:27:24.919Z,99663.22
2022-08-20T08:29:52.067Z,99666.09
2022-08-20T08:32:19.085Z,99656.78
2022-08-20T08:34:48.176Z,99656.22
2022-08-20T08:37:26.956Z,99655.06
2022-08-20T08:39:57.221Z,99666.41
2022-08-20T08:42:27.283Z,99669.13
2022-08-20T08:44:54.648Z,99661.34
2022-08-20T08:47:26.492Z,99659.75
2022-08-20T08:49:53.915Z,99662.13
2022-08-20T08:52:22.952Z,99652.75
2022-08-20T08:54:52.766Z,99645.97
2022-08-20T08:57:20.283Z,99640.94
2022-08-20T09:00:03.924Z,99642.94
2022-08-20T09:02:34.396Z,99630.84
2022-08-20T09:05:06.425Z,99631.16
2022-08-20T09:07:33.642Z,99630.94
2022-08-20T09:10:02.458Z,99626.19
2022-08-20T09:12:30.744Z,99620.88
2022-08-20T09:14:58.367Z,99611.97
2022-08-20T09:17:25.489Z,99608.84
2022-08-20T09:19:52.643Z,99606.56
2022-08-20T09:22:21.318Z,99604.25
2022-08-20T09:24:48.652Z,99605.66
2022-08-20T09:27:15.619Z,99599.50
2022-08-20T09:29:42.815Z,99609.47
2022-08-20T09:32:10.451Z,99613.94
2022-08-20T09:34:44.872Z,99612.53
2022-08-20T09:37:12.207Z,99614.63
2022-08-20T09:39:39.365Z,99613.50
2022-08-20T09:42:11.148Z,99624.44
2022-08-20T09:44:39.614Z,99616.31
2022-08-20T09:47:06.551Z,99623.78
2022-08-20T09:49:33.834Z,99625.75
2022-08-20T09:52:01.452Z,99633.81
2022-08-20T09:54:30.219Z,99630.81
2022-08-20T09:56:58.163Z,99626.84
2022-08-20T09:59:25.678Z,99637.31
2022-08-20T10:01:53.478Z,99635.03
2022-08-20T10:04:20.388Z,99641.06
2022-08-20T10:06:47.630Z,99644.38
2022-08-20T10:09:14.885Z,99648.28
2022-08-20T10:11:41.979Z,99647.84
2022-08-20T10:14:09.317Z,99652.06
2022-08-20T10:16:36.357Z,99643.91
2022-08-20T10:19:04.174Z,99651.53
2022-08-20T10:21:35.436Z,99645.34
2022-08-20T10:24:05.525Z,99644.25
2022-08-20T10:26:33.011Z,99645.94
2022-08-20T10:28:59.933Z,99642.31
2022-08-20T10:31:26.847Z,99641.13
2022-08-20T10:33:54.007Z,99648.56
2022-08-20T10:36:20.839Z,99640.59
2022-08-20T10:38:49.151Z,99637.09
2022-08-20T10:41:16.444Z,99639.56
2022-08-20T10:43:43.923Z,99629.97
2022-08-20T10:46:10.755Z,99628.22
2022-08-20T10:48:37.943Z,99625.78
2022-08-20T10:51:04.855Z,99628.31
2022-08-20T10:53:32.862Z,99621.22
2022-08-20T10:56:00.127Z,99621.91
2022-08-20T10:58:29.003Z,99613.00
2022-08-20T11:01:07.237Z,99612.25
2022-08-20T11:03:34.897Z,99612.50
2022-08-20T11:06:02.980Z,99609.44
2022-08-20T11:08:34.158Z,99615.66
2022-08-20T11:11:05.451Z,99616.06
2022-08-20T11:13:34.210Z,99607.13
2022-08-20T11:16:01.899Z,99599.13
2022-08-20T11:18:29.282Z,99604.88
2022-08-20T11:20:56.956Z,99613.75
2022-08-20T11:23:23.882Z,99623.16
2022-08-20T11:25:50.889Z,99626.09
2022-08-20T11:28:30.985Z,99624.63
2022-08-20T11:30:59.693Z,99624.63
2022-08-20T11:33:27.202Z,99623.09
2022-08-20T11:35:55.375Z,99630.34
2022-08-20T11:38:23.381Z,99635.47
2022-08-20T11:40:50.577Z,99634.50
2022-08-20T11:43:18.274Z,99626.66
2022-08-20T11:45:46.466Z,99632.13
2022-08-20T11:48:13.709Z,99629.06
2022-08-20T11:50:40.597Z,99629.91
2022-08-20T11:53:08.024Z,99629.78
2022-08-20T11:55:37.181Z,99631.16
2022-08-20T11:58:06.137Z,99634.19
2022-08-20T12:00:34.185Z,99636.97
2022-08-20T12:03:02.571Z,99644.47
2022-08-20T12:05:32.340Z,99641.50
2022-08-20T12:08:02.656Z,99650.38
2022-08-20T12:10:30.691Z,99648.78
2022-08-20T12:12:57.752Z,99639.69
2022-08-20T12:15:26.829Z,99645.63
2022-08-20T12:17:54.478Z,99640.97
2022-08-20T12:20:21.901Z,99644.44
2022-08-20T12:22:48.798Z,99636.91
2022-08-20T12:25:16.156Z,99628.16
2022-08-20T12:27:43.066Z,99627.53
2022-08-20T12:30:12.484Z,99626.09
2022-08-20T12:32:40.399Z,99623.03
2022-08-20T12:35:07.677Z,99628.06
2022-08-20T12:37:34.983Z,99613.63
2022-08-20T12:40:04.907Z,99616.31
2022-08-20T12:42:32.255Z,99606.97
2022-08-20T12:44:59.686Z,99609.28
2022-08-20T12:47:31.264Z,99607.38
2022-08-20T12:50:05.434Z,99618.75
2022-08-20T12:52:33.482Z,99612.19
2022-08-20T12:55:00.913Z,99606.56
2022-08-20T12:57:32.938Z,99599.44
2022-08-20T13:00:03.743Z,99590.75
2022-08-20T13:02:33.049Z,99594.72
2022-08-20T13:05:04.909Z,99588.53
2022-08-20T13:07:32.767Z,99584.28
2022-08-20T13:10:00.482Z,99584.16
2022-08-20T13:12:27.432Z,99586.69
2022-08-20T13:14:56.390Z,99581.22
2022-08-20T13:17:37.981Z,99578.44
2022-08-20T13:20:10.471Z,99571.56
2022-08-20T13:22:37.642Z,99578.38
2022-08-20T13:25:05.233Z,99582.16
2022-08-20T13:27:33.131Z,99577.28
2022-08-20T13:30:00.571Z,99578.47
2022-08-20T13:32:27.476Z,99577.56
2022-08-20T13:34:54.403Z,99569.97
2022-08-20T13:37:25.999Z,99577.13
2022-08-20T13:39:57.843Z,99578.75
2022-08-20T13:42:25.754Z,99571.56
2022-08-20T13:44:53.414Z,99559.84
2022-08-20T13:47:29.706Z,99578.06
2022-08-20T13:49:59.249Z,99571.59
2022-08-20T13:52:26.782Z,99574.38
2022-08-20T13:54:54.134Z,99581.03
2022-08-20T13:57:22.601Z,99573.66
2022-08-20T13:59:50.372Z,99574.69
2022-08-20T14:02:17.896Z,99575.34
2022-08-20T14:04:45.682Z,99575.91
2022-08-20T14:07:13.415Z,99576.03
2022-08-20T14:09:41.517Z,99572.16
2022-08-20T14:12:09.531Z,99576.38
2022-08-20T14:14:36.487Z,99571.66
2022-08-20T14:17:39.156Z,99567.66
2022-08-20T14:20:11.620Z,99570.78
2022-08-20T14:22:38.600Z,99569.91
2022-08-20T14:25:06.522Z,99573.16
2022-08-20T14:27:34.099Z,99561.44
2022-08-20T14:30:01.406Z,99568.34
2022-08-20T14:32:30.560Z,99567.41
2022-08-20T14:34:59.383Z,99571.31
2022-08-20T14:37:28.439Z,99576.66
2022-08-20T14:39:59.562Z,99569.63
2022-08-20T14:42:28.597Z,99572.16
2022-08-20T14:44:56.175Z,99570.00
2022-08-20T14:47:24.862Z,99568.25
2022-08-20T14:49:53.542Z,99569.22
2022-08-20T14:52:21.463Z,99574.22
2022-08-20T14:54:49.814Z,99573.25
2022-08-20T14:57:17.830Z,99581.53
2022-08-20T14:59:44.865Z,99585.41
2022-08-20T15:02:12.669Z,99575.91
2022-08-20T15:04:40.820Z,99576.19
2022-08-20T15:07:13.687Z,99588.50
2022-08-20T15:09:43.422Z,99586.75
2022-08-20T15:12:10.251Z,99592.53
2022-08-20T15:14:39.264Z,99580.75
2022-08-20T15:17:06.661Z,99594.47
2022-08-20T15:19:35.851Z,99588.25
2022-08-20T15:22:02.955Z,99583.13
2022-08-20T15:24:30.419Z,99578.56
2022-08-20T15:26:57.943Z,99580.75
2022-08-20T15:29:24.795Z,99579.16
2022-08-20T15:31:52.327Z,99583.81
2022-08-20T15:34:19.322Z,99577.31
2022-08-20T15:36:47.306Z,99568.22
2022-08-20T15:39:14.413Z,99571.31
2022-08-20T15:41:41.328Z,99569.44
2022-08-20T15:44:08.315Z,99584.47
2022-08-20T15:46:39.009Z,99584.38
2022-08-20T15:49:09.674Z,99583.88
2022-08-20T15:51:45.105Z,99582.19
2022-08-20T15:54:21.785Z,99580.03
2022-08-20T15:57:10.192Z,99586.53
2022-08-20T15:59:47.605Z,99585.97
2022-08-20T16:02:30.065Z,99586.38
2022-08-20T16:05:15.190Z,99581.44
2022-08-20T16:07:58.810Z,99575.75
2022-08-20T16:10:30.438Z,99571.56
2022-08-20T16:12:59.192Z,99582.06
2022-08-20T16:15:34.054Z,99586.41
2022-08-20T16:18:07.332Z,99590.31
2022-08-20T16:20:35.854Z,99588.59
2022-08-20T16:23:04.119Z,99595.41
2022-08-20T16:25:34.207Z,99584.75
2022-08-20T16:28:20.001Z,99590.91
2022-08-20T16:30:48.324Z,99597.81
2022-08-20T16:33:29.238Z,99593.56
2022-08-20T16:35:59.052Z,99602.28
2022-08-20T16:38:36.631Z,99596.97
2022-08-20T16:41:12.162Z,99597.09
2022-08-20T16:43:53.313Z,99606.50
2022-08-20T16:46:21.854Z,99603.94
2022-08-20T16:48:57.998Z,99610.41
2022-08-20T16:51:36.734Z,99604.28
2022-08-20T16:54:05.729Z,99606.56
2022-08-20T16:56:34.461Z,99601.78
2022-08-20T16:59:02.206Z,99611.56
2022-08-20T17:01:29.093Z,99600.56
2022-08-20T17:03:56.466Z,99603.09
2022-08-20T17:06:23.299Z,99599.50
2022-08-20T17:08:51.867Z,99577.41
2022-08-20T17:11:37.245Z,99597.59
2022-08-20T17:14:04.022Z,99599.63
2022-08-20T17:16:37.089Z,99611.28
2022-08-20T17:19:12.986Z,99624.94
2022-08-20T17:21:40.855Z,99621.91
2022-08-20T17:24:16.792Z,99620.59
2022-08-20T17:26:46.516Z,99633.81
2022-08-20T17:29:15.635Z,99636.44
2022-08-20T17:31:45.010Z,99639.88
2022-08-20T17:34:25.282Z,99646.50
2022-08-20T17:36:55.417Z,99640.31
2022-08-20T17:39:24.436Z,99646.06
2022-08-20T17:41:54.524Z,99639.41
2022-08-20T17:44:25.896Z,99639.75
2022-08-20T17:46:53.887Z,99634.56
2022-08-20T17:49:26.425Z,99646.09
2022-08-20T17:51:54.850Z,99636.72
2022-08-20T17:54:23.728Z,99647.28
2022-08-20T17:56:53.704Z,99659.97
2022-08-20T17:59:59.869Z,99655.78
2022-08-20T18:02:14.969Z,99656.81
2022-08-20T18:04:42.686Z,99643.91
2022-08-20T18:07:16.000Z,99640.19
2022-08-20T18:09:54.752Z,99649.13
2022-08-20T18:12:33.869Z,99653.34
2022-08-20T18:15:25.103Z,99654.13
2022-08-20T18:17:55.193Z,99656.28
2022-08-20T18:20:37.310Z,99674.09
2022-08-20T18:23:13.151Z,99664.13
2022-08-20T18:25:43.937Z,99670.81
2022-08-20T18:28:36.438Z,99674.03
2022-08-20T18:31:09.824Z,99667.00
2022-08-20T18:33:53.069Z,99675.50
2022-08-20T18:37:13.798Z,99679.72
2022-08-20T18:39:46.431Z,99676.75
2022-08-20T18:42:24.726Z,99675.16
2022-08-20T18:44:53.276Z,99682.56
2022-08-20T18:47:26.515Z,99677.03
2022-08-20T18:50:02.712Z,99673.63
2022-08-20T18:52:41.593Z,99682.81
2022-08-20T18:55:28.013Z,99686.16
2022-08-20T18:58:00.611Z,99698.31
2022-08-20T19:00:33.360Z,99691.91
2022-08-20T19:03:07.580Z,99697.19
2022-08-20T19:05:44.865Z,99699.56
2022-08-20T19:08:18.017Z,99696.41
2022-08-20T19:10:53.998Z,99700.34
2022-08-20T19:13:26.533Z,99690.56
2022-08-20T19:15:57.086Z,99695.56
2022-08-20T19:18:33.036Z,99684.81
2022-08-20T19:21:02.309Z,99689.53
2022-08-20T19:23:32.156Z,99679.09
2022-08-20T19:26:03.361Z,99684.38
2022-08-20T19:28:31.549Z,99677.31
2022-08-20T19:31:17.717Z,99676.25
2022-08-20T19:33:47.967Z,99673.91
2022-08-20T19:36:22.346Z,99672.91
2022-08-20T19:38:56.035Z,99675.75
2022-08-20T19:41:30.981Z,99677.59
2022-08-20T19:43:59.079Z,99675.28
2022-08-20T19:46:36.788Z,99671.38
2022-08-20T19:49:22.719Z,99674.28
2022-08-20T19:52:09.062Z,99661.28
2022-08-20T19:54:44.280Z,99667.72
2022-08-20T19:57:12.996Z,99678.06
2022-08-20T19:59:40.451Z,99675.03
2022-08-20T20:02:20.434Z,99675.03
2022-08-20T20:04:55.474Z,99666.81
2022-08-20T20:07:29.796Z,99667.41
2022-08-20T20:09:58.115Z,99665.88
2022-08-20T20:12:25.323Z,99661.38
2022-08-20T20:14:53.367Z,99665.44
2022-08-20T20:17:24.380Z,99663.59
2022-08-20T20:19:59.545Z,99643.09
2022-08-20T20:22:32.363Z,99660.66
2022-08-20T20:25:02.814Z,99656.97
2022-08-20T20:27:32.146Z,99643.78
2022-08-20T20:30:10.614Z,99646.69
2022-08-20T20:32:47.880Z,99652.75
2022-08-20T20:35:32.388Z,99634.84
2022-08-20T20:38:02.186Z,99640.63
2022-08-20T20:40:35.856Z,99639.94
2022-08-20T20:43:12.073Z,99648.72
2022-08-20T20:45:41.139Z,99635.75
2022-08-20T20:48:11.100Z,99624.75
2022-08-20T20:50:44.750Z,99636.16
2022-08-20T20:53:17.523Z,99627.75
2022-08-20T20:55:59.651Z,99630.88
2022-08-20T20:58:34.522Z,99630.69
2022-08-20T21:01:02.074Z,99636.66
2022-08-20T21:03:32.574Z,99624.03
2022-08-20T21:06:04.598Z,99627.69
2022-08-20T21:08:43.661Z,99632.19
2022-08-20T21:11:11.622Z,99631.66
2022-08-20T21:13:38.940Z,99622.22
2022-08-20T21:16:07.188Z,99631.47
2022-08-20T21:18:36.630Z,99629.09
2022-08-20T21:21:07.731Z,99619.38
2022-08-20T21:23:39.939Z,99618.00
2022-08-20T21:26:09.180Z,99618.34
2022-08-20T21:28:36.049Z,99618.66
2022-08-20T21:31:04.031Z,99619.41
2022-08-20T21:33:32.099Z,99623.63
2022-08-20T21:35:58.953Z,99623.13
2022-08-20T21:38:25.910Z,99624.97
2022-08-20T21:40:53.135Z,99622.59
2022-08-20T21:43:23.207Z,99615.22
2022-08-20T21:45:51.077Z,99617.13
2022-08-20T21:48:18.734Z,99620.03
2022-08-20T21:50:45.620Z,99614.47
2022-08-20T21:53:13.367Z,99617.69
2022-08-20T21:55:40.953Z,99609.56
2022-08-20T21:58:08.605Z,99624.53
2022-08-20T22:00:47.753Z,99624.22
2022-08-20T22:03:15.371Z,99623.22
2022-08-20T22:05:42.374Z,99620.09
2022-08-20T22:08:09.923Z,99618.25
2022-08-20T22:10:37.716Z,99622.72
2022-08-20T22:13:04.846Z,99621.38
2022-08-20T22:15:31.809Z,99610.84
2022-08-20T22:17:59.675Z,99606.66
2022-08-20T22:20:26.742Z,99611.94
2022-08-20T22:22:53.756Z,99600.59
2022-08-20T22:25:21.225Z,99600.38
2022-08-20T22:27:48.298Z,99598.78
2022-08-20T22:30:15.212Z,99592.78
2022-08-20T22:32:52.154Z,99592.28
2022-08-20T22:35:19.770Z,99587.03
2022-08-20T22:37:47.417Z,99587.53
2022-08-20T22:40:14.777Z,99593.88
2022-08-20T22:42:41.755Z,99593.53
2022-08-20T22:45:14.630Z,99593.00
2022-08-20T22:47:42.305Z,99584.88
2022-08-20T22:50:11.457Z,99580.94
2022-08-20T22:52:39.424Z,99578.56
2022-08-20T22:55:11.310Z,99580.94
2022-08-20T22:57:43.945Z,99585.41
2022-08-20T23:00:12.943Z,99582.47
2022-08-20T23:02:45.256Z,99583.28
2022-08-20T23:05:14.899Z,99590.09
2022-08-20T23:07:44.603Z,99582.22
2022-08-20T23:10:11.809Z,99579.59
2022-08-20T23:12:40.442Z,99585.13
2022-08-20T23:15:10.318Z,99593.00
2022-08-20T23:17:41.255Z,99585.41
2022-08-20T23:20:10.857Z,99588.59
2022-08-20T23:22:38.252Z,99584.13
2022-08-20T23:25:06.049Z,99570.19
2022-08-20T23:27:35.588Z,99577.78
2022-08-20T23:30:02.684Z,99572.31
2022-08-20T23:32:30.696Z,99573.66
2022-08-20T23:34:58.200Z,99573.44
2022-08-20T23:37:25.266Z,99576.63
2022-08-20T23:39:53.607Z,99564.03
2022-08-20T23:42:22.207Z,99565.06
2022-08-20T23:44:49.214Z,99569.81
2022-08-20T23:47:20.255Z,99564.56
2022-08-20T23:49:49.642Z,99568.81
2022-08-20T23:52:16.565Z,99566.69
2022-08-20T23:54:43.513Z,99575.09
2022-08-20T23:57:11.033Z,99574.34
2022-08-20T23:59:39.184Z,99573.53
